Disclaimer

Please do not use the information listed here in-flight or in-navigation, as they are not provided to us by the airports but are provided by volunteers, so they might be outdated.

Search


Regions


Airport information page

Radio informations:
Tower (TWR) - 118.9 MHz

Airport informations:
Latitude: 15° 32' 49.30" N
Longitude: 061° 18' 00.00" W
Elevation: 73 feet - 22 meters
Operating hours: Remarks
Operating agency: Civil government, landing fees and diplomatic clearance may be required
Timezone: UTC-4
Fuel: N/A

Runway information:
09/27 - 4777 x 148 feet< - >1456 x 45 meters

Recent METARs:
TDPD 162300Z 12008KT 9999 BKN017 26/23 Q1014
TDPD 170000Z 12008KT 9999 -SHRA BKN016 25/22 Q1014
TDPD 170000Z 12008KT 9999 -SHRA BKN016 25/22 Q1014

Airport on the map: